createdAt,value
2018-04-13T00:00:04.009Z,99.99
2018-04-13T00:01:04.011Z,99.99
2018-04-13T00:02:04.021Z,99.99
2018-04-13T00:03:04.027Z,99.99
2018-04-13T00:04:04.027Z,99.99
2018-04-13T00:05:04.036Z,99.99
2018-04-13T00:06:04.027Z,99.99
2018-04-13T00:07:04.600Z,99.99
2018-04-13T00:08:04.032Z,99.99
2018-04-13T00:09:04.044Z,99.99
2018-04-13T00:10:04.038Z,99.99
2018-04-13T00:11:04.052Z,99.99
2018-04-13T00:12:04.050Z,99.99
2018-04-13T00:13:04.057Z,99.99
2018-04-13T00:14:04.057Z,99.99
2018-04-13T00:15:04.066Z,99.99
2018-04-13T00:16:04.061Z,99.99
2018-04-13T00:17:04.072Z,99.99
2018-04-13T00:18:04.075Z,99.99
2018-04-13T00:19:04.075Z,99.99
2018-04-13T00:20:04.080Z,99.99
2018-04-13T00:21:04.088Z,99.99
2018-04-13T00:22:04.091Z,99.99
2018-04-13T00:23:04.090Z,99.99
2018-04-13T00:24:04.097Z,99.99
2018-04-13T00:25:04.104Z,99.99
2018-04-13T00:26:04.121Z,99.99
2018-04-13T00:27:04.106Z,99.99
2018-04-13T00:28:04.106Z,99.99
2018-04-13T00:29:04.126Z,99.99
2018-04-13T00:30:04.134Z,99.99
2018-04-13T00:31:04.122Z,99.99
2018-04-13T00:32:04.131Z,99.99
2018-04-13T00:33:04.140Z,99.99
2018-04-13T00:34:04.137Z,99.99
2018-04-13T00:35:04.148Z,99.99
2018-04-13T00:36:04.142Z,99.99
2018-04-13T00:37:04.154Z,99.99
2018-04-13T00:38:04.170Z,99.99
2018-04-13T00:39:04.149Z,99.99
2018-04-13T00:40:04.157Z,99.99
2018-04-13T00:41:04.157Z,99.99
2018-04-13T00:42:04.159Z,99.99
2018-04-13T00:43:04.172Z,99.99
2018-04-13T00:44:04.194Z,99.99
2018-04-13T00:45:04.198Z,99.99
2018-04-13T00:46:04.182Z,99.99
2018-04-13T00:47:04.177Z,99.99
2018-04-13T00:48:04.179Z,99.99
2018-04-13T00:49:04.191Z,99.99
2018-04-13T00:50:04.205Z,99.99
2018-04-13T00:51:04.192Z,99.99
2018-04-13T00:52:04.201Z,99.99
2018-04-13T00:53:04.197Z,99.99
2018-04-13T00:54:04.209Z,99.99
2018-04-13T00:55:04.210Z,99.99
2018-04-13T00:56:04.214Z,99.99
2018-04-13T00:57:04.219Z,99.99
2018-04-13T00:58:04.223Z,99.99
2018-04-13T00:59:04.229Z,99.99
2018-04-13T01:00:04.229Z,99.99
2018-04-13T01:01:04.237Z,99.99
2018-04-13T01:02:04.235Z,99.99
2018-04-13T01:03:04.236Z,99.99
2018-04-13T01:04:04.249Z,99.99
2018-04-13T01:05:04.253Z,99.99
2018-04-13T01:06:04.248Z,99.99
2018-04-13T01:07:04.257Z,99.99
2018-04-13T01:08:04.252Z,99.99
2018-04-13T01:09:04.264Z,99.99
2018-04-13T01:10:04.259Z,99.99
2018-04-13T01:11:04.304Z,99.99
2018-04-13T01:12:04.265Z,99.99
2018-04-13T01:13:04.277Z,99.99
2018-04-13T01:14:04.277Z,99.99
2018-04-13T01:15:04.280Z,99.99
2018-04-13T01:16:04.283Z,99.99
2018-04-13T01:17:04.288Z,99.99
2018-04-13T01:18:04.293Z,99.99
2018-04-13T01:19:04.295Z,99.99
2018-04-13T01:20:04.297Z,99.99
2018-04-13T01:21:04.307Z,99.99
2018-04-13T01:22:04.309Z,99.99
2018-04-13T01:23:04.312Z,99.99
2018-04-13T01:24:04.315Z,99.99
2018-04-13T01:25:04.314Z,99.99
2018-04-13T01:26:04.323Z,99.99
2018-04-13T01:27:04.323Z,99.99
2018-04-13T01:28:04.323Z,99.99
2018-04-13T01:29:04.331Z,99.99
2018-04-13T01:30:04.338Z,99.99
2018-04-13T01:31:04.331Z,99.99
2018-04-13T01:32:04.337Z,99.99
2018-04-13T01:33:04.349Z,99.99
2018-04-13T01:34:04.351Z,99.99
2018-04-13T01:35:04.357Z,99.99
2018-04-13T01:36:04.359Z,99.99
2018-04-13T01:37:04.357Z,99.99
2018-04-13T01:38:04.369Z,99.99
2018-04-13T01:39:04.369Z,99.99
2018-04-13T01:40:04.362Z,99.99
2018-04-13T01:41:04.376Z,99.99
2018-04-13T01:42:04.371Z,99.99
2018-04-13T01:43:04.385Z,99.99
2018-04-13T01:44:04.384Z,99.99
2018-04-13T01:45:04.385Z,99.99
2018-04-13T01:46:04.385Z,99.99
2018-04-13T01:47:04.397Z,99.99
2018-04-13T01:48:04.392Z,99.99
2018-04-13T01:49:04.406Z,99.99
2018-04-13T01:50:04.407Z,99.99
2018-04-13T01:51:04.408Z,99.99
2018-04-13T01:52:04.411Z,99.99
2018-04-13T01:53:04.437Z,99.99
2018-04-13T01:54:04.425Z,99.99
2018-04-13T01:55:04.426Z,99.99
2018-04-13T01:56:04.422Z,99.99
2018-04-13T01:57:04.429Z,99.99
2018-04-13T01:58:04.431Z,99.99
2018-04-13T01:59:04.442Z,99.99
2018-04-13T02:00:04.435Z,99.99
2018-04-13T02:01:04.444Z,99.99
2018-04-13T02:02:04.443Z,99.99
2018-04-13T02:03:04.448Z,99.99
2018-04-13T02:04:04.454Z,99.99
2018-04-13T02:05:04.456Z,99.99
2018-04-13T02:06:04.471Z,99.99
2018-04-13T02:07:04.462Z,99.99
2018-04-13T02:08:04.467Z,99.99
2018-04-13T02:09:04.467Z,99.99
2018-04-13T02:10:04.472Z,99.99
2018-04-13T02:11:04.482Z,99.99
2018-04-13T02:12:04.491Z,99.99
2018-04-13T02:13:04.478Z,99.99
2018-04-13T02:14:04.489Z,99.99
2018-04-13T02:15:04.491Z,99.99
2018-04-13T02:16:04.494Z,99.99
2018-04-13T02:17:04.497Z,99.99
2018-04-13T02:18:04.507Z,99.99
2018-04-13T02:19:04.497Z,99.99
2018-04-13T02:20:04.502Z,99.99
2018-04-13T02:21:04.556Z,99.99
2018-04-13T02:22:04.514Z,99.99
2018-04-13T02:23:04.514Z,99.99
2018-04-13T02:24:04.526Z,99.99
2018-04-13T02:25:04.520Z,99.99
2018-04-13T02:26:04.524Z,99.99
2018-04-13T02:27:04.528Z,99.99
2018-04-13T02:28:04.533Z,99.99
2018-04-13T02:29:04.539Z,99.99
2018-04-13T02:30:04.543Z,99.99
2018-04-13T02:31:04.548Z,99.99
2018-04-13T02:32:04.545Z,99.99
2018-04-13T02:33:04.554Z,99.99
2018-04-13T02:34:04.549Z,99.99
2018-04-13T02:35:04.564Z,99.99
2018-04-13T02:36:04.571Z,99.99
2018-04-13T02:37:04.622Z,99.99
2018-04-13T02:38:04.563Z,99.99
2018-04-13T02:39:04.575Z,99.99
2018-04-13T02:40:04.569Z,99.99
2018-04-13T02:41:04.578Z,99.99
2018-04-13T02:42:04.573Z,99.99
2018-04-13T02:43:04.578Z,99.99
2018-04-13T02:44:04.581Z,99.99
2018-04-13T02:45:04.589Z,99.99
2018-04-13T02:46:04.590Z,99.99
2018-04-13T02:47:04.593Z,99.99
2018-04-13T02:48:04.597Z,99.99
2018-04-13T02:49:04.606Z,99.99
2018-04-13T02:50:04.607Z,99.99
2018-04-13T02:51:04.606Z,99.99
2018-04-13T02:52:04.602Z,99.99
2018-04-13T02:53:04.619Z,99.99
2018-04-13T02:54:04.615Z,99.99
2018-04-13T02:55:04.617Z,99.99
2018-04-13T02:56:04.624Z,99.99
2018-04-13T02:57:04.621Z,99.99
2018-04-13T02:58:04.626Z,99.99
2018-04-13T02:59:04.625Z,99.99
2018-04-13T03:00:04.633Z,99.99
2018-04-13T03:01:04.641Z,99.99
2018-04-13T03:02:04.651Z,99.99
2018-04-13T03:03:04.646Z,99.99
2018-04-13T03:04:04.638Z,99.99
2018-04-13T03:05:04.651Z,99.99
2018-04-13T03:06:04.651Z,99.99
2018-04-13T03:07:04.650Z,99.99
2018-04-13T03:08:04.666Z,99.99
2018-04-13T03:09:04.659Z,99.99
2018-04-13T03:10:04.666Z,99.99
2018-04-13T03:11:04.661Z,99.99
2018-04-13T03:12:04.683Z,99.99
2018-04-13T03:13:04.761Z,99.99
2018-04-13T03:14:04.689Z,99.99
2018-04-13T03:15:04.688Z,99.99
2018-04-13T03:16:04.679Z,99.99
2018-04-13T03:17:04.680Z,99.99
2018-04-13T03:18:04.694Z,99.99
2018-04-13T03:19:04.689Z,99.99
2018-04-13T03:20:04.693Z,99.99
2018-04-13T03:21:04.697Z,99.99
2018-04-13T03:22:04.704Z,99.99
2018-04-13T03:23:04.703Z,99.99
2018-04-13T03:24:04.702Z,99.99
2018-04-13T03:25:04.723Z,99.99
2018-04-13T03:26:04.714Z,99.99
2018-04-13T03:27:04.714Z,99.99
2018-04-13T03:28:04.719Z,99.99
2018-04-13T03:29:04.721Z,99.99
2018-04-13T03:30:04.725Z,99.99
2018-04-13T03:31:04.720Z,99.99
2018-04-13T03:32:04.726Z,99.99
2018-04-13T03:33:04.734Z,99.99
2018-04-13T03:34:04.730Z,99.99
2018-04-13T03:35:04.741Z,99.99
2018-04-13T03:36:04.740Z,99.99
2018-04-13T03:37:04.747Z,99.99
2018-04-13T03:38:04.741Z,99.99
2018-04-13T03:39:04.751Z,99.99
2018-04-13T03:40:04.750Z,99.99
2018-04-13T03:41:04.755Z,99.99
2018-04-13T03:42:04.760Z,99.99
2018-04-13T03:43:04.761Z,99.99
2018-04-13T03:44:04.766Z,99.99
2018-04-13T03:45:04.773Z,99.99
2018-04-13T03:46:04.774Z,99.99
2018-04-13T03:47:04.785Z,99.99
2018-04-13T03:48:04.775Z,99.99
2018-04-13T03:49:04.779Z,99.99
2018-04-13T03:50:04.787Z,99.99
2018-04-13T03:51:04.788Z,99.99
2018-04-13T03:52:04.799Z,99.99
2018-04-13T03:53:04.796Z,99.99
2018-04-13T03:54:04.818Z,99.99
2018-04-13T03:55:04.791Z,99.99
2018-04-13T03:56:04.796Z,99.99
2018-04-13T03:57:04.807Z,99.99
2018-04-13T03:58:04.810Z,99.99
2018-04-13T03:59:04.805Z,99.99
2018-04-13T04:00:04.809Z,99.99
2018-04-13T04:01:04.814Z,99.99
2018-04-13T04:02:04.868Z,99.99
2018-04-13T04:03:04.820Z,99.99
2018-04-13T04:04:04.819Z,99.99
2018-04-13T04:05:04.824Z,99.99
2018-04-13T04:06:04.828Z,99.99
2018-04-13T04:07:04.834Z,99.99
2018-04-13T04:08:04.830Z,99.99
2018-04-13T04:09:04.848Z,99.99
2018-04-13T04:10:04.842Z,99.99
2018-04-13T04:11:04.865Z,99.99
2018-04-13T04:12:04.846Z,99.99
2018-04-13T04:13:04.852Z,99.99
2018-04-13T04:14:04.867Z,99.99
2018-04-13T04:15:04.866Z,99.99
2018-04-13T04:16:04.866Z,99.99
2018-04-13T04:17:04.874Z,99.99
2018-04-13T04:18:04.883Z,99.99
2018-04-13T04:19:04.882Z,99.99
2018-04-13T04:20:04.868Z,99.99
2018-04-13T04:21:04.873Z,99.99
2018-04-13T04:22:04.875Z,99.99
2018-04-13T04:23:04.889Z,99.99
2018-04-13T04:24:04.897Z,99.99
2018-04-13T04:25:04.882Z,99.99
2018-04-13T04:26:04.887Z,99.99
2018-04-13T04:27:04.892Z,99.99
2018-04-13T04:28:04.889Z,99.99
2018-04-13T04:29:04.900Z,99.99
2018-04-13T04:30:04.905Z,99.99
2018-04-13T04:31:04.901Z,99.99
2018-04-13T04:32:04.910Z,99.99
2018-04-13T04:33:04.908Z,99.99
2018-04-13T04:34:04.916Z,99.99
2018-04-13T04:35:04.919Z,99.99
2018-04-13T04:36:04.913Z,99.99
2018-04-13T04:37:04.927Z,99.99
2018-04-13T04:38:04.932Z,99.99
2018-04-13T04:39:04.942Z,99.99
2018-04-13T04:40:04.928Z,99.99
2018-04-13T04:41:04.941Z,99.99
2018-04-13T04:42:04.938Z,99.99
2018-04-13T04:43:04.948Z,99.99
2018-04-13T04:44:04.953Z,99.99
2018-04-13T04:45:04.950Z,99.99
2018-04-13T04:46:04.952Z,99.99
2018-04-13T04:47:04.951Z,99.99
2018-04-13T04:48:04.959Z,99.99
2018-04-13T04:49:04.968Z,99.99
2018-04-13T04:50:04.956Z,99.99
2018-04-13T04:51:04.966Z,99.99
2018-04-13T04:52:04.965Z,99.99
2018-04-13T04:53:04.972Z,99.99
2018-04-13T04:54:04.971Z,99.99
2018-04-13T04:55:04.978Z,99.99
2018-04-13T04:56:04.978Z,99.99
2018-04-13T04:57:04.989Z,99.99
2018-04-13T04:58:04.984Z,99.99
2018-04-13T04:59:04.991Z,99.99
2018-04-13T05:00:04.989Z,99.99
2018-04-13T05:01:05.003Z,99.99
2018-04-13T05:02:04.993Z,99.99
2018-04-13T05:03:05.007Z,99.99
2018-04-13T05:04:05.017Z,99.99
2018-04-13T05:05:05.015Z,99.99
2018-04-13T05:06:05.019Z,99.99
2018-04-13T05:07:05.015Z,99.99
2018-04-13T05:08:05.022Z,99.99
2018-04-13T05:09:05.025Z,99.99
2018-04-13T05:10:05.027Z,99.99
2018-04-13T05:11:05.038Z,99.99
2018-04-13T05:12:05.028Z,99.99
2018-04-13T05:13:05.044Z,99.99
2018-04-13T05:14:05.067Z,99.99
2018-04-13T05:15:07.044Z,99.99
2018-04-13T05:16:05.713Z,99.99
2018-04-13T05:17:07.693Z,99.99
2018-04-13T05:18:07.274Z,99.99
2018-04-13T05:19:05.046Z,99.99
2018-04-13T05:20:05.054Z,99.99
2018-04-13T05:21:05.056Z,99.99
2018-04-13T05:22:05.059Z,99.99
2018-04-13T05:23:05.067Z,99.99
2018-04-13T05:24:05.063Z,99.99
2018-04-13T05:25:05.076Z,99.99
2018-04-13T05:26:05.076Z,99.99
2018-04-13T05:27:05.077Z,99.99
2018-04-13T05:28:05.082Z,99.99
2018-04-13T05:29:05.078Z,99.99
2018-04-13T05:30:05.109Z,99.99
2018-04-13T05:31:05.091Z,99.99
2018-04-13T05:32:05.088Z,99.99
2018-04-13T05:33:05.101Z,99.99
2018-04-13T05:34:05.102Z,99.99
2018-04-13T05:35:05.136Z,99.99
2018-04-13T05:36:05.109Z,99.99
2018-04-13T05:37:05.123Z,99.99
2018-04-13T05:38:05.107Z,99.99
2018-04-13T05:39:05.112Z,99.99
2018-04-13T05:40:05.165Z,99.99
2018-04-13T05:41:05.118Z,99.99
2018-04-13T05:42:05.133Z,99.99
2018-04-13T05:43:05.167Z,99.99
2018-04-13T05:44:05.124Z,99.99
2018-04-13T05:45:05.137Z,99.99
2018-04-13T05:46:05.191Z,99.99
2018-04-13T05:47:05.144Z,99.99
2018-04-13T05:48:05.146Z,99.99
2018-04-13T05:49:05.143Z,99.43
2018-04-13T05:50:05.153Z,99.43
2018-04-13T05:51:05.149Z,99.14
2018-04-13T05:52:05.156Z,98.95
2018-04-13T05:53:05.166Z,98.09
2018-04-13T05:54:05.162Z,98.09
2018-04-13T05:55:05.180Z,97.42
2018-04-13T05:56:05.171Z,97.52
2018-04-13T05:57:05.174Z,97.42
2018-04-13T05:58:05.176Z,97.37
2018-04-13T05:59:05.181Z,97.08
2018-04-13T06:00:05.182Z,96.70
2018-04-13T06:01:05.192Z,96.22
2018-04-13T06:02:05.193Z,96.70
2018-04-13T06:03:05.202Z,95.84
2018-04-13T06:04:05.192Z,95.75
2018-04-13T06:05:05.210Z,95.84
2018-04-13T06:06:05.245Z,95.84
2018-04-13T06:07:05.211Z,95.75
2018-04-13T06:08:05.210Z,96.75
2018-04-13T06:09:05.220Z,95.51
2018-04-13T06:10:05.223Z,95.70
2018-04-13T06:11:05.217Z,95.70
2018-04-13T06:12:05.223Z,94.84
2018-04-13T06:13:05.236Z,95.22
2018-04-13T06:14:05.237Z,94.26
2018-04-13T06:15:05.234Z,94.36
2018-04-13T06:16:05.239Z,93.59
2018-04-13T06:17:05.249Z,93.69
2018-04-13T06:18:05.250Z,93.40
2018-04-13T06:19:05.250Z,93.40
2018-04-13T06:20:05.255Z,93.07
2018-04-13T06:21:05.262Z,93.07
2018-04-13T06:22:05.272Z,92.68
2018-04-13T06:23:05.274Z,91.82
2018-04-13T06:24:05.275Z,92.01
2018-04-13T06:25:05.281Z,91.92
2018-04-13T06:26:05.291Z,92.30
2018-04-13T06:27:05.281Z,92.87
2018-04-13T06:28:05.287Z,93.07
2018-04-13T06:29:05.315Z,93.88
2018-04-13T06:30:05.299Z,93.83
2018-04-13T06:31:05.300Z,93.93
2018-04-13T06:32:05.304Z,92.87
2018-04-13T06:33:05.309Z,91.72
2018-04-13T06:34:05.316Z,91.53
2018-04-13T06:35:05.332Z,90.96
2018-04-13T06:36:05.341Z,90.77
2018-04-13T06:37:05.327Z,90.00
2018-04-13T06:38:05.338Z,90.39
2018-04-13T06:39:05.344Z,90.39
2018-04-13T06:40:05.339Z,90.53
2018-04-13T06:41:05.359Z,90.91
2018-04-13T06:42:05.350Z,91.11
2018-04-13T06:43:05.352Z,91.49
2018-04-13T06:44:05.356Z,91.68
2018-04-13T06:45:05.364Z,91.30
2018-04-13T06:46:05.374Z,90.91
2018-04-13T06:47:05.369Z,90.72
2018-04-13T06:48:05.377Z,90.72
2018-04-13T06:49:05.378Z,91.20
2018-04-13T06:50:05.384Z,91.20
2018-04-13T06:51:05.392Z,91.11
2018-04-13T06:52:05.397Z,91.97
2018-04-13T06:53:05.396Z,91.97
2018-04-13T06:54:05.404Z,92.25
2018-04-13T06:55:05.410Z,91.77
2018-04-13T06:56:05.419Z,92.16
2018-04-13T06:57:05.416Z,91.49
2018-04-13T06:58:05.473Z,91.58
2018-04-13T06:59:05.419Z,91.05
2018-04-13T07:00:05.428Z,90.77
2018-04-13T07:01:05.436Z,90.29
2018-04-13T07:02:05.441Z,90.39
2018-04-13T07:03:05.442Z,89.62
2018-04-13T07:04:05.443Z,88.90
2018-04-13T07:05:05.452Z,88.70
2018-04-13T07:06:05.456Z,87.94
2018-04-13T07:07:05.462Z,87.84
2018-04-13T07:08:05.463Z,87.08
2018-04-13T07:09:05.465Z,86.74
2018-04-13T07:10:05.485Z,85.88
2018-04-13T07:11:05.476Z,86.07
2018-04-13T07:12:05.484Z,85.11
2018-04-13T07:13:05.491Z,83.71
2018-04-13T07:14:05.488Z,83.04
2018-04-13T07:15:05.505Z,82.08
2018-04-13T07:16:05.505Z,82.70
2018-04-13T07:17:05.524Z,82.31
2018-04-13T07:18:05.512Z,81.16
2018-04-13T07:19:05.521Z,80.15
2018-04-13T07:20:05.525Z,79.32
2018-04-13T07:21:05.532Z,78.27
2018-04-13T07:22:05.534Z,77.83
2018-04-13T07:23:05.547Z,76.00
2018-04-13T07:24:05.538Z,75.27
2018-04-13T07:25:05.556Z,74.40
2018-04-13T07:26:05.555Z,73.44
2018-04-13T07:27:06.838Z,73.35
2018-04-13T07:28:05.569Z,73.19
2018-04-13T07:29:05.575Z,73.00
2018-04-13T07:30:05.741Z,72.32
2018-04-13T07:31:05.584Z,72.13
2018-04-13T07:32:06.091Z,72.03
2018-04-13T07:33:05.603Z,72.13
2018-04-13T07:34:06.179Z,72.03
2018-04-13T07:35:05.610Z,70.72
2018-04-13T07:36:05.615Z,71.01
2018-04-13T07:37:05.626Z,70.98
2018-04-13T07:38:05.633Z,70.30
2018-04-13T07:39:05.638Z,70.59
2018-04-13T07:40:05.651Z,71.14
2018-04-13T07:41:05.652Z,71.52
2018-04-13T07:42:05.662Z,71.61
2018-04-13T07:43:05.665Z,71.91
2018-04-13T07:44:05.676Z,71.42
2018-04-13T07:45:05.732Z,71.52
2018-04-13T07:46:05.695Z,72.38
2018-04-13T07:47:05.698Z,72.48
2018-04-13T07:48:05.708Z,72.58
2018-04-13T07:49:05.717Z,73.11
2018-04-13T07:50:05.733Z,73.50
2018-04-13T07:51:05.725Z,73.41
2018-04-13T07:52:05.755Z,73.41
2018-04-13T07:53:05.989Z,73.98
2018-04-13T07:54:05.760Z,74.27
2018-04-13T07:55:05.846Z,74.17
2018-04-13T07:56:05.767Z,74.65
2018-04-13T07:57:05.793Z,74.75
2018-04-13T07:58:05.784Z,74.37
2018-04-13T07:59:05.803Z,74.46
2018-04-13T08:00:05.809Z,74.55
2018-04-13T08:01:06.094Z,74.17
2018-04-13T08:02:05.828Z,74.46
2018-04-13T08:03:05.821Z,74.37
2018-04-13T08:04:05.834Z,75.04
2018-04-13T08:05:05.841Z,75.13
2018-04-13T08:06:05.844Z,75.20
2018-04-13T08:07:05.853Z,75.20
2018-04-13T08:08:05.859Z,75.29
2018-04-13T08:09:05.869Z,75.57
2018-04-13T08:10:06.256Z,75.57
2018-04-13T08:11:05.885Z,75.67
2018-04-13T08:12:05.896Z,75.67
2018-04-13T08:13:05.911Z,75.48
2018-04-13T08:14:05.970Z,75.23
2018-04-13T08:15:06.281Z,74.90
2018-04-13T08:16:05.917Z,74.90
2018-04-13T08:17:05.928Z,75.67
2018-04-13T08:18:05.925Z,75.67
2018-04-13T08:19:05.944Z,76.34
2018-04-13T08:20:05.941Z,76.06
2018-04-13T08:21:05.952Z,76.15
2018-04-13T08:22:05.964Z,75.48
2018-04-13T08:23:05.967Z,75.87
2018-04-13T08:24:05.980Z,75.62
2018-04-13T08:25:05.983Z,75.42
2018-04-13T08:26:05.991Z,75.32
2018-04-13T08:27:05.995Z,75.52
2018-04-13T08:28:05.998Z,75.96
2018-04-13T08:29:06.012Z,75.87
2018-04-13T08:30:06.015Z,76.34
2018-04-13T08:31:06.019Z,76.29
2018-04-13T08:32:06.027Z,75.71
2018-04-13T08:33:06.034Z,75.71
2018-04-13T08:34:06.042Z,75.32
2018-04-13T08:35:06.067Z,75.23
2018-04-13T08:36:06.073Z,74.94
2018-04-13T08:37:06.066Z,74.85
2018-04-13T08:38:06.077Z,74.27
2018-04-13T08:39:06.088Z,73.79
2018-04-13T08:40:06.073Z,73.69
2018-04-13T08:41:06.094Z,74.27
2018-04-13T08:42:06.089Z,74.65
2018-04-13T08:43:06.105Z,74.65
2018-04-13T08:44:06.102Z,74.27
2018-04-13T08:45:06.118Z,74.46
2018-04-13T08:46:06.120Z,75.38
2018-04-13T08:47:06.135Z,75.57
2018-04-13T08:48:06.128Z,75.87
2018-04-13T08:49:06.258Z,75.77
2018-04-13T08:50:06.155Z,75.67
2018-04-13T08:51:06.155Z,75.96
2018-04-13T08:52:06.166Z,75.87
2018-04-13T08:53:06.178Z,75.77
2018-04-13T08:54:06.239Z,76.54
2018-04-13T08:55:06.175Z,76.25
2018-04-13T08:56:06.242Z,76.15
2018-04-13T08:57:06.319Z,76.06
2018-04-13T08:58:06.207Z,75.87
2018-04-13T08:59:06.226Z,75.38
2018-04-13T09:00:06.209Z,75.57
2018-04-13T09:01:06.234Z,75.87
2018-04-13T09:02:06.232Z,75.38
2018-04-13T09:03:06.230Z,74.52
2018-04-13T09:04:12.543Z,74.33
2018-04-13T09:05:06.266Z,74.23
2018-04-13T09:06:06.251Z,75.29
2018-04-13T09:07:06.267Z,75.57
2018-04-13T09:08:06.262Z,75.38
2018-04-13T09:09:06.276Z,75.10
2018-04-13T09:10:06.280Z,74.62
2018-04-13T09:11:06.281Z,74.52
2018-04-13T09:12:06.293Z,74.33
2018-04-13T09:13:06.312Z,73.85
2018-04-13T09:14:06.301Z,74.33
2018-04-13T09:15:06.309Z,72.89
2018-04-13T09:16:06.314Z,72.54
2018-04-13T09:17:06.323Z,71.67
2018-04-13T09:18:06.333Z,71.29
2018-04-13T09:19:06.330Z,70.52
2018-04-13T09:20:06.338Z,70.04
2018-04-13T09:21:06.352Z,69.46
2018-04-13T09:22:06.354Z,69.12
2018-04-13T09:23:06.369Z,68.54
2018-04-13T09:24:06.387Z,67.96
2018-04-13T09:25:06.375Z,67.80
2018-04-13T09:26:07.265Z,67.42
2018-04-13T09:27:06.392Z,66.65
2018-04-13T09:28:06.397Z,66.01
2018-04-13T09:29:06.409Z,65.14
2018-04-13T09:30:06.410Z,64.08
2018-04-13T09:31:06.417Z,63.79
2018-04-13T09:32:06.430Z,63.31
2018-04-13T09:33:06.459Z,63.12
2018-04-13T09:34:06.443Z,63.41
2018-04-13T09:35:06.443Z,62.26
2018-04-13T09:36:06.451Z,62.93
2018-04-13T09:37:06.467Z,62.83
2018-04-13T09:38:06.472Z,62.93
2018-04-13T09:39:06.480Z,62.64
2018-04-13T09:40:06.480Z,62.54
2018-04-13T09:41:06.496Z,62.64
2018-04-13T09:42:06.494Z,62.48
2018-04-13T09:43:06.510Z,62.00
2018-04-13T09:44:06.515Z,62.29
2018-04-13T09:45:06.526Z,61.32
2018-04-13T09:46:06.571Z,60.75
2018-04-13T09:47:06.548Z,60.68
2018-04-13T09:48:06.567Z,60.49
2018-04-13T09:49:06.566Z,59.43
2018-04-13T09:50:06.568Z,59.65
2018-04-13T09:51:06.573Z,58.11
2018-04-13T09:52:06.584Z,58.11
2018-04-13T09:53:06.595Z,58.49
2018-04-13T09:54:06.599Z,58.78
2018-04-13T09:55:06.611Z,58.17
2018-04-13T09:56:06.614Z,58.47
2018-04-13T09:57:06.625Z,58.65
2018-04-13T09:58:06.660Z,58.65
2018-04-13T09:59:06.641Z,58.69
2018-04-13T10:00:06.658Z,58.49
2018-04-13T10:01:06.655Z,58.49
2018-04-13T10:02:06.674Z,58.69
2018-04-13T10:03:06.680Z,58.88
2018-04-13T10:04:06.693Z,58.49
2018-04-13T10:05:06.700Z,58.59
2018-04-13T10:06:06.701Z,58.59
2018-04-13T10:07:06.718Z,58.69
2018-04-13T10:08:06.734Z,58.49
2018-04-13T10:09:06.729Z,58.78
2018-04-13T10:10:06.741Z,58.78
2018-04-13T10:11:06.754Z,58.17
2018-04-13T10:12:06.756Z,58.01
2018-04-13T10:13:06.775Z,57.50
2018-04-13T10:14:06.782Z,57.12
2018-04-13T10:15:06.788Z,57.09
2018-04-13T10:16:06.804Z,57.37
2018-04-13T10:17:06.812Z,57.18
2018-04-13T10:18:06.819Z,56.99
2018-04-13T10:19:06.830Z,57.67
2018-04-13T10:20:07.015Z,57.86
2018-04-13T10:21:06.844Z,57.86
2018-04-13T10:22:06.850Z,58.05
2018-04-13T10:23:06.862Z,57.95
2018-04-13T10:24:07.438Z,57.76
2018-04-13T10:25:06.888Z,57.57
2018-04-13T10:26:06.883Z,57.76
2018-04-13T10:27:06.900Z,58.15
2018-04-13T10:28:06.913Z,57.95
2018-04-13T10:29:06.909Z,57.57
2018-04-13T10:30:06.947Z,57.67
2018-04-13T10:31:06.926Z,57.47
2018-04-13T10:32:06.943Z,57.95
2018-04-13T10:33:06.955Z,58.15
2018-04-13T10:34:06.960Z,57.76
2018-04-13T10:35:06.974Z,57.95
2018-04-13T10:36:06.974Z,58.63
2018-04-13T10:37:07.018Z,58.24
2018-04-13T10:38:06.987Z,58.72
2018-04-13T10:39:07.040Z,58.40
2018-04-13T10:40:07.115Z,58.40
2018-04-13T10:41:07.037Z,59.11
2018-04-13T10:42:07.125Z,59.27
2018-04-13T10:43:07.055Z,58.98
2018-04-13T10:44:07.045Z,58.70
2018-04-13T10:45:07.088Z,58.53
2018-04-13T10:46:07.140Z,59.11
2018-04-13T10:47:07.117Z,58.70
2018-04-13T10:48:07.095Z,58.79
2018-04-13T10:49:07.183Z,58.05
2018-04-13T10:50:07.102Z,57.86
2018-04-13T10:51:07.403Z,58.24
2018-04-13T10:52:07.120Z,58.53
2018-04-13T10:53:07.125Z,57.95
2018-04-13T10:54:07.131Z,57.57
2018-04-13T10:55:07.150Z,57.60
2018-04-13T10:56:07.148Z,56.92
2018-04-13T10:57:07.185Z,57.31
2018-04-13T10:58:07.166Z,57.50
2018-04-13T10:59:07.182Z,57.21
2018-04-13T11:00:07.175Z,57.31
2018-04-13T11:01:07.218Z,56.44
2018-04-13T11:02:07.199Z,56.15
2018-04-13T11:03:07.216Z,55.38
2018-04-13T11:04:07.221Z,56.25
2018-04-13T11:05:07.226Z,56.15
2018-04-13T11:06:07.224Z,55.38
2018-04-13T11:07:07.281Z,55.29
2018-04-13T11:08:07.242Z,55.38
2018-04-13T11:09:07.267Z,55.00
2018-04-13T11:10:07.264Z,54.71
2018-04-13T11:11:07.274Z,55.00
2018-04-13T11:12:07.285Z,55.19
2018-04-13T11:13:07.288Z,55.19
2018-04-13T11:14:07.294Z,55.00
2018-04-13T11:15:07.298Z,55.48
2018-04-13T11:16:07.306Z,55.09
2018-04-13T11:17:07.320Z,55.26
2018-04-13T11:18:07.356Z,55.74
2018-04-13T11:19:07.344Z,55.83
2018-04-13T11:20:07.339Z,56.32
2018-04-13T11:21:07.349Z,56.80
2018-04-13T11:22:07.362Z,56.32
2018-04-13T11:23:07.357Z,56.32
2018-04-13T11:24:07.379Z,56.22
2018-04-13T11:25:07.388Z,56.03
2018-04-13T11:26:07.391Z,55.26
2018-04-13T11:27:07.402Z,55.45
2018-04-13T11:28:07.404Z,55.55
2018-04-13T11:29:07.414Z,55.57
2018-04-13T11:30:07.422Z,55.09
2018-04-13T11:31:07.423Z,54.71
2018-04-13T11:32:07.432Z,54.90
2018-04-13T11:33:07.443Z,54.13
2018-04-13T11:34:07.457Z,54.78
2018-04-13T11:35:07.662Z,54.68
2018-04-13T11:36:07.466Z,55.16
2018-04-13T11:37:07.475Z,54.87
2018-04-13T11:38:07.476Z,54.49
2018-04-13T11:39:07.484Z,54.78
2018-04-13T11:40:07.493Z,55.23
2018-04-13T11:41:07.504Z,55.23
2018-04-13T11:42:07.508Z,55.07
2018-04-13T11:43:07.519Z,54.78
2018-04-13T11:44:07.523Z,54.78
2018-04-13T11:45:07.538Z,54.17
2018-04-13T11:46:07.542Z,54.75
2018-04-13T11:47:07.547Z,54.56
2018-04-13T11:48:07.557Z,54.46
2018-04-13T11:49:07.566Z,54.94
2018-04-13T11:50:07.595Z,54.82
2018-04-13T11:51:07.575Z,55.30
2018-04-13T11:52:07.587Z,55.40
2018-04-13T11:53:07.597Z,55.68
2018-04-13T11:54:07.601Z,55.59
2018-04-13T11:55:07.611Z,55.78
2018-04-13T11:56:07.620Z,56.26
2018-04-13T11:57:07.625Z,56.26
2018-04-13T11:58:07.636Z,56.26
2018-04-13T11:59:07.644Z,56.26
2018-04-13T12:00:07.646Z,56.65
2018-04-13T12:01:07.660Z,56.16
2018-04-13T12:02:07.664Z,56.71
2018-04-13T12:03:07.670Z,56.71
2018-04-13T12:04:07.673Z,56.71
2018-04-13T12:05:07.689Z,57.29
2018-04-13T12:06:07.687Z,56.81
2018-04-13T12:07:07.703Z,57.87
2018-04-13T12:08:07.701Z,57.87
2018-04-13T12:09:07.711Z,58.54
2018-04-13T12:10:07.727Z,59.12
2018-04-13T12:11:07.724Z,59.09
2018-04-13T12:12:07.738Z,59.57
2018-04-13T12:13:07.735Z,59.28
2018-04-13T12:14:07.745Z,59.28
2018-04-13T12:15:07.749Z,59.38
2018-04-13T12:16:07.760Z,59.66
2018-04-13T12:17:07.773Z,59.38
2018-04-13T12:18:07.775Z,59.86
2018-04-13T12:19:07.781Z,60.11
2018-04-13T12:20:07.786Z,60.31
2018-04-13T12:21:07.796Z,60.50
2018-04-13T12:22:07.804Z,60.82
2018-04-13T12:23:07.840Z,60.31
2018-04-13T12:24:07.813Z,61.08
2018-04-13T12:25:07.816Z,61.55
2018-04-13T12:26:07.831Z,61.36
2018-04-13T12:27:07.832Z,61.17
2018-04-13T12:28:07.838Z,61.55
2018-04-13T12:29:07.883Z,61.46
2018-04-13T12:30:07.852Z,61.27
2018-04-13T12:31:07.872Z,61.55
2018-04-13T12:32:07.860Z,62.04
2018-04-13T12:33:07.869Z,61.84
2018-04-13T12:34:07.884Z,62.04
2018-04-13T12:35:07.880Z,62.13
2018-04-13T12:36:07.881Z,61.84
2018-04-13T12:37:07.896Z,62.13
2018-04-13T12:38:07.905Z,61.94
2018-04-13T12:39:07.901Z,61.94
2018-04-13T12:40:07.904Z,61.94
2018-04-13T12:41:07.920Z,61.75
2018-04-13T12:42:07.923Z,61.94
2018-04-13T12:43:07.929Z,61.75
2018-04-13T12:44:07.932Z,61.94
2018-04-13T12:45:07.934Z,62.61
2018-04-13T12:46:07.947Z,62.81
2018-04-13T12:47:07.948Z,63.38
2018-04-13T12:48:07.961Z,63.09
2018-04-13T12:49:07.963Z,63.28
2018-04-13T12:50:07.964Z,63.38
2018-04-13T12:51:07.980Z,63.35
2018-04-13T12:52:07.978Z,63.35